createdAt,value
2022-09-26T00:00:46.295Z,29.90
2022-09-26T00:05:48.393Z,29.90
2022-09-26T00:11:00.567Z,29.80
2022-09-26T00:16:03.066Z,30.50
2022-09-26T00:21:11.992Z,30.40
2022-09-26T00:26:15.766Z,29.90
2022-09-26T00:31:22.058Z,30.60
2022-09-26T00:36:37.089Z,29.90
2022-09-26T00:41:39.925Z,30.00
2022-09-26T00:46:47.971Z,30.60
2022-09-26T00:51:59.909Z,30.30
2022-09-26T00:57:10.812Z,32.10
2022-09-26T01:02:13.261Z,31.00
2022-09-26T01:07:19.772Z,31.60
2022-09-26T01:12:22.494Z,32.80
2022-09-26T01:17:26.220Z,32.00
2022-09-26T01:22:43.248Z,32.60
2022-09-26T01:28:03.546Z,32.20
2022-09-26T01:33:35.208Z,32.10
2022-09-26T01:38:59.121Z,30.80
2022-09-26T01:44:29.709Z,30.90
2022-09-26T01:49:37.587Z,30.50
2022-09-26T01:54:49.312Z,30.20
2022-09-26T02:00:01.406Z,30.20
2022-09-26T02:05:09.021Z,30.30
2022-09-26T02:15:21.350Z,30.40
2022-09-26T02:20:32.173Z,30.00
2022-09-26T02:25:34.446Z,30.80
2022-09-26T02:30:40.097Z,30.00
2022-09-26T02:35:55.539Z,29.80
2022-09-26T02:41:22.714Z,29.80
2022-09-26T02:47:01.667Z,29.80
2022-09-26T02:52:35.935Z,29.80
2022-09-26T02:57:50.162Z,30.40
2022-09-26T03:03:13.696Z,29.70
2022-09-26T03:08:18.228Z,29.80
2022-09-26T03:13:21.536Z,29.70
2022-09-26T03:18:31.712Z,29.60
2022-09-26T03:23:34.217Z,29.60
2022-09-26T03:28:38.238Z,29.60
2022-09-26T03:33:40.897Z,31.10
2022-09-26T03:38:43.175Z,30.10
2022-09-26T03:43:46.440Z,29.60
2022-09-26T03:48:49.809Z,30.20
2022-09-26T03:53:51.819Z,29.60
2022-09-26T03:58:55.547Z,29.60
2022-09-26T04:03:58.021Z,29.70
2022-09-26T04:09:00.826Z,29.60
2022-09-26T04:14:04.007Z,29.70
2022-09-26T04:19:06.667Z,30.10
2022-09-26T04:24:15.529Z,29.60
2022-09-26T04:29:17.739Z,29.70
2022-09-26T04:34:27.530Z,29.70
2022-09-26T04:39:30.072Z,29.90
2022-09-26T04:44:32.776Z,30.70
2022-09-26T04:49:34.774Z,30.90
2022-09-26T04:54:37.366Z,31.20
2022-09-26T04:59:39.522Z,30.70
2022-09-26T05:04:42.636Z,31.50
2022-09-26T05:09:44.964Z,31.30
2022-09-26T05:14:47.492Z,30.50
2022-09-26T05:19:49.802Z,31.30
2022-09-26T05:25:10.836Z,31.40
2022-09-26T05:30:13.381Z,30.60
2022-09-26T05:35:15.652Z,30.20
2022-09-26T05:40:37.224Z,31.40
2022-09-26T05:45:40.289Z,30.90
2022-09-26T05:50:46.262Z,31.00
2022-09-26T05:55:51.019Z,31.30
2022-09-26T06:01:00.227Z,31.20
2022-09-26T06:06:06.934Z,32.30
2022-09-26T06:11:12.933Z,32.30
2022-09-26T06:16:20.433Z,32.50
2022-09-26T06:21:23.524Z,32.90
2022-09-26T06:26:28.714Z,32.20
2022-09-26T06:31:31.481Z,31.30
2022-09-26T06:36:35.906Z,30.80
2022-09-26T06:41:37.975Z,31.00
2022-09-26T06:46:43.664Z,31.40
2022-09-26T06:51:47.075Z,31.40
2022-09-26T06:56:49.260Z,31.60
2022-09-26T07:01:53.060Z,30.90
2022-09-26T07:06:59.868Z,31.70
2022-09-26T07:12:17.951Z,32.10
2022-09-26T07:17:20.706Z,31.40
2022-09-26T07:22:23.866Z,32.10
2022-09-26T07:27:26.574Z,31.30
2022-09-26T07:32:31.119Z,31.00
2022-09-26T07:37:33.917Z,31.00
2022-09-26T07:42:38.579Z,31.10
2022-09-26T07:47:59.154Z,30.40
2022-09-26T07:53:04.135Z,30.50
2022-09-26T07:58:12.365Z,28.80
2022-09-26T08:03:15.041Z,29.30
2022-09-26T08:08:17.594Z,28.40
2022-09-26T08:13:22.197Z,28.40
2022-09-26T08:18:24.598Z,27.80
2022-09-26T08:23:26.608Z,28.00
2022-09-26T08:28:31.242Z,28.00
2022-09-26T08:33:35.259Z,27.70
2022-09-26T08:38:38.805Z,27.70
2022-09-26T08:43:44.549Z,27.40
2022-09-26T08:48:51.901Z,26.90
2022-09-26T08:54:02.610Z,26.10
2022-09-26T08:59:11.203Z,26.30
2022-09-26T09:04:24.339Z,26.60
2022-09-26T09:15:13.829Z,24.30
2022-09-26T09:20:45.436Z,24.10
2022-09-26T09:32:00.007Z,21.60
2022-09-26T09:37:10.646Z,21.40
2022-09-26T09:42:22.138Z,21.10
2022-09-26T09:47:28.613Z,20.90
2022-09-26T09:52:52.676Z,20.00
2022-09-26T09:58:16.644Z,20.00
2022-09-26T10:03:26.637Z,19.90
2022-09-26T10:08:31.272Z,19.80
2022-09-26T10:13:42.486Z,20.10
2022-09-26T10:19:09.877Z,19.70
2022-09-26T10:24:34.234Z,19.60
2022-09-26T10:29:42.490Z,19.30
2022-09-26T10:35:24.052Z,19.00
2022-09-26T10:40:45.128Z,18.80
2022-09-26T10:45:54.795Z,17.10
2022-09-26T10:51:02.823Z,18.00
2022-09-26T10:56:13.673Z,18.20
2022-09-26T11:01:30.027Z,17.00
2022-09-26T11:06:34.976Z,15.80
2022-09-26T11:11:39.484Z,16.10
2022-09-26T11:16:44.738Z,14.70
2022-09-26T11:22:08.061Z,14.80
2022-09-26T11:38:39.668Z,13.80
2022-09-26T11:44:09.172Z,13.90
2022-09-26T11:49:56.963Z,13.80
2022-09-26T11:55:37.065Z,13.30
2022-09-26T12:00:44.574Z,13.10
2022-09-26T12:06:07.524Z,12.80
2022-09-26T12:11:34.647Z,12.40
2022-09-26T12:16:46.617Z,11.10
2022-09-26T12:22:16.688Z,11.80
2022-09-26T12:27:25.597Z,12.00
2022-09-26T12:32:48.384Z,13.40
2022-09-26T12:37:58.329Z,13.20
2022-09-26T12:43:31.310Z,13.90
2022-09-26T12:49:04.347Z,14.80
2022-09-26T12:54:25.147Z,15.80
2022-09-26T12:59:34.306Z,16.50
2022-09-26T13:04:48.794Z,18.20
2022-09-26T13:10:28.591Z,18.50
2022-09-26T13:16:27.561Z,18.50
2022-09-26T13:22:05.058Z,17.80
2022-09-26T13:27:20.241Z,17.90
2022-09-26T13:32:35.662Z,18.80
2022-09-26T13:37:54.679Z,17.30
2022-09-26T13:43:25.487Z,17.60
2022-09-26T13:49:00.818Z,17.70
2022-09-26T13:54:10.407Z,17.30
2022-09-26T13:59:12.449Z,16.90
2022-09-26T14:04:32.762Z,16.80
2022-09-26T14:09:52.289Z,17.00
2022-09-26T14:15:39.689Z,17.20
2022-09-26T14:21:09.510Z,17.00
2022-09-26T14:26:15.755Z,17.40
2022-09-26T14:31:36.805Z,17.10
2022-09-26T14:36:39.310Z,17.30
2022-09-26T14:41:41.901Z,17.20
2022-09-26T14:46:44.729Z,17.30
2022-09-26T14:51:50.405Z,17.50
2022-09-26T14:57:05.114Z,16.60
2022-09-26T15:02:34.199Z,17.00
2022-09-26T15:07:52.136Z,17.70
2022-09-26T15:13:17.095Z,17.70
2022-09-26T15:18:28.155Z,17.40
2022-09-26T15:23:44.281Z,18.00
2022-09-26T15:28:48.971Z,17.50
2022-09-26T15:33:55.699Z,17.80
2022-09-26T15:38:58.613Z,18.00
2022-09-26T15:44:03.310Z,18.20
2022-09-26T15:49:14.358Z,18.10
2022-09-26T15:54:23.020Z,18.40
2022-09-26T15:59:41.176Z,18.50
2022-09-26T16:04:43.768Z,18.70
2022-09-26T16:09:48.334Z,19.40
2022-09-26T16:15:05.525Z,19.10
2022-09-26T16:20:13.607Z,19.30
2022-09-26T16:25:15.840Z,19.30
2022-09-26T16:30:23.445Z,19.30
2022-09-26T16:35:29.605Z,19.40
2022-09-26T16:40:34.820Z,19.30
2022-09-26T16:45:44.992Z,19.30
2022-09-26T16:50:47.180Z,19.60
2022-09-26T17:01:10.737Z,19.90
2022-09-26T17:06:12.980Z,19.90
2022-09-26T17:11:16.113Z,20.00
2022-09-26T17:16:18.416Z,20.20
2022-09-26T17:21:20.609Z,21.10
2022-09-26T17:26:23.856Z,21.00
2022-09-26T17:31:26.948Z,20.80
2022-09-26T17:36:29.758Z,21.30
2022-09-26T17:41:34.272Z,21.60
2022-09-26T17:46:38.239Z,22.40
2022-09-26T17:51:42.145Z,22.80
2022-09-26T17:56:44.843Z,23.10
2022-09-26T18:01:48.603Z,22.80
2022-09-26T18:06:51.016Z,23.40
2022-09-26T18:12:00.847Z,23.30
2022-09-26T18:17:04.262Z,24.20
2022-09-26T18:22:10.530Z,24.80
2022-09-26T18:27:14.723Z,25.40
2022-09-26T18:32:31.619Z,24.50
2022-09-26T18:37:33.866Z,24.70
2022-09-26T18:42:36.518Z,24.90
2022-09-26T18:47:44.597Z,25.40
2022-09-26T18:52:47.632Z,24.90
2022-09-26T18:58:08.389Z,25.00
2022-09-26T19:03:10.882Z,24.30
2022-09-26T19:08:33.014Z,25.10
2022-09-26T19:13:35.177Z,25.30
2022-09-26T19:18:38.342Z,24.70
2022-09-26T19:23:40.548Z,24.70
2022-09-26T19:28:42.755Z,25.50
2022-09-26T19:33:47.555Z,25.50
2022-09-26T19:38:49.869Z,24.70
2022-09-26T19:43:52.272Z,26.30
2022-09-26T19:48:54.439Z,24.70
2022-09-26T19:53:57.181Z,25.20
2022-09-26T19:58:59.522Z,24.60
2022-09-26T20:04:01.843Z,24.50
2022-09-26T20:09:05.271Z,25.00
2022-09-26T20:14:25.520Z,25.50
2022-09-26T20:19:38.302Z,24.80
2022-09-26T20:30:05.491Z,25.20
2022-09-26T20:35:11.091Z,25.00
2022-09-26T20:40:22.579Z,25.30
2022-09-26T20:45:30.861Z,26.00
2022-09-26T20:50:35.452Z,25.90
2022-09-26T20:55:41.830Z,25.50
2022-09-26T21:00:47.106Z,25.40
2022-09-26T21:05:49.298Z,26.20
2022-09-26T21:15:54.118Z,25.70
2022-09-26T21:21:03.951Z,25.80
2022-09-26T21:26:24.019Z,26.60
2022-09-26T21:31:32.052Z,27.00
2022-09-26T21:36:39.529Z,26.60
2022-09-26T21:41:41.711Z,27.20
2022-09-26T21:46:44.544Z,26.80
2022-09-26T21:51:48.415Z,27.10
2022-09-26T21:56:57.375Z,27.50
2022-09-26T22:01:59.500Z,27.70
2022-09-26T22:07:02.017Z,28.20
2022-09-26T22:12:04.198Z,27.70
2022-09-26T22:17:06.462Z,28.80
2022-09-26T22:27:11.649Z,28.90
2022-09-26T22:32:13.783Z,28.40
2022-09-26T22:37:16.098Z,28.90
2022-09-26T22:42:18.198Z,28.90
2022-09-26T22:47:20.397Z,29.50
2022-09-26T22:52:22.513Z,29.50
2022-09-26T22:57:24.667Z,29.70
2022-09-26T23:02:26.782Z,29.00
2022-09-26T23:07:30.095Z,29.10
2022-09-26T23:12:32.357Z,30.30
2022-09-26T23:17:34.885Z,30.20
2022-09-26T23:22:39.569Z,30.30
2022-09-26T23:27:41.664Z,30.00
2022-09-26T23:32:44.455Z,30.10
2022-09-26T23:37:46.654Z,30.00
2022-09-26T23:42:48.791Z,30.10
2022-09-26T23:47:50.949Z,30.90
2022-09-26T23:52:53.425Z,30.70
2022-09-26T23:57:59.198Z,30.90
